sensor_id;sensor_type;location;lat;lon;timestamp;P1;durP1;ratioP1;P2;durP2;ratioP2
47749;SDS011;49810;48.160;10.812;2023-03-23T00:00:22;11.27;;;6.78;;
47749;SDS011;49810;48.160;10.812;2023-03-23T00:02:49;10.40;;;6.72;;
47749;SDS011;49810;48.160;10.812;2023-03-23T00:05:16;11.73;;;7.00;;
47749;SDS011;49810;48.160;10.812;2023-03-23T00:07:44;13.70;;;7.00;;
47749;SDS011;49810;48.160;10.812;2023-03-23T00:10:11;12.65;;;7.43;;
47749;SDS011;49810;48.160;10.812;2023-03-23T00:12:38;12.88;;;7.38;;
47749;SDS011;49810;48.160;10.812;2023-03-23T00:15:08;14.10;;;7.78;;
47749;SDS011;49810;48.160;10.812;2023-03-23T00:17:38;12.52;;;7.28;;
47749;SDS011;49810;48.160;10.812;2023-03-23T00:20:05;14.27;;;8.48;;
47749;SDS011;49810;48.160;10.812;2023-03-23T00:22:34;11.20;;;7.43;;
47749;SDS011;49810;48.160;10.812;2023-03-23T00:25:07;12.35;;;7.50;;
47749;SDS011;49810;48.160;10.812;2023-03-23T00:27:34;12.07;;;7.43;;
47749;SDS011;49810;48.160;10.812;2023-03-23T00:30:01;9.88;;;7.10;;
47749;SDS011;49810;48.160;10.812;2023-03-23T00:32:28;13.50;;;7.85;;
47749;SDS011;49810;48.160;10.812;2023-03-23T00:34:55;12.65;;;7.75;;
47749;SDS011;49810;48.160;10.812;2023-03-23T00:37:24;13.27;;;7.82;;
47749;SDS011;49810;48.160;10.812;2023-03-23T00:39:50;13.65;;;7.78;;
47749;SDS011;49810;48.160;10.812;2023-03-23T00:42:24;11.63;;;7.07;;
47749;SDS011;49810;48.160;10.812;2023-03-23T00:44:51;11.95;;;7.00;;
47749;SDS011;49810;48.160;10.812;2023-03-23T00:47:26;10.20;;;6.82;;
47749;SDS011;49810;48.160;10.812;2023-03-23T00:49:53;11.23;;;7.53;;
47749;SDS011;49810;48.160;10.812;2023-03-23T00:52:21;10.85;;;6.65;;
47749;SDS011;49810;48.160;10.812;2023-03-23T00:54:48;12.65;;;7.35;;
47749;SDS011;49810;48.160;10.812;2023-03-23T00:57:15;11.48;;;7.07;;
47749;SDS011;49810;48.160;10.812;2023-03-23T00:59:45;13.40;;;7.80;;
47749;SDS011;49810;48.160;10.812;2023-03-23T01:02:13;9.50;;;6.35;;
47749;SDS011;49810;48.160;10.812;2023-03-23T01:04:40;10.77;;;6.95;;
47749;SDS011;49810;48.160;10.812;2023-03-23T01:07:10;11.80;;;7.10;;
47749;SDS011;49810;48.160;10.812;2023-03-23T01:09:38;10.85;;;7.55;;
47749;SDS011;49810;48.160;10.812;2023-03-23T01:12:11;13.07;;;7.72;;
47749;SDS011;49810;48.160;10.812;2023-03-23T01:14:38;12.15;;;7.03;;
47749;SDS011;49810;48.160;10.812;2023-03-23T01:17:07;12.35;;;7.65;;
47749;SDS011;49810;48.160;10.812;2023-03-23T01:19:34;10.90;;;7.00;;
47749;SDS011;49810;48.160;10.812;2023-03-23T01:22:02;11.68;;;7.10;;
47749;SDS011;49810;48.160;10.812;2023-03-23T01:24:30;11.77;;;7.25;;
47749;SDS011;49810;48.160;10.812;2023-03-23T01:26:57;12.60;;;7.25;;
47749;SDS011;49810;48.160;10.812;2023-03-23T01:29:27;10.98;;;7.85;;
47749;SDS011;49810;48.160;10.812;2023-03-23T01:31:54;11.13;;;7.07;;
47749;SDS011;49810;48.160;10.812;2023-03-23T01:34:22;12.38;;;7.28;;
47749;SDS011;49810;48.160;10.812;2023-03-23T01:36:49;10.77;;;7.20;;
47749;SDS011;49810;48.160;10.812;2023-03-23T01:39:15;11.07;;;7.43;;
47749;SDS011;49810;48.160;10.812;2023-03-23T01:41:42;11.48;;;7.63;;
47749;SDS011;49810;48.160;10.812;2023-03-23T01:46:57;10.32;;;6.30;;
47749;SDS011;49810;48.160;10.812;2023-03-23T01:49:27;12.15;;;7.22;;
47749;SDS011;49810;48.160;10.812;2023-03-23T01:51:55;11.23;;;7.30;;
47749;SDS011;49810;48.160;10.812;2023-03-23T01:54:23;10.40;;;6.60;;
47749;SDS011;49810;48.160;10.812;2023-03-23T01:56:52;12.57;;;6.80;;
47749;SDS011;49810;48.160;10.812;2023-03-23T01:59:20;12.45;;;7.10;;
47749;SDS011;49810;48.160;10.812;2023-03-23T02:01:58;10.63;;;6.32;;
47749;SDS011;49810;48.160;10.812;2023-03-23T02:04:28;9.95;;;6.70;;
47749;SDS011;49810;48.160;10.812;2023-03-23T02:06:55;9.10;;;6.03;;
47749;SDS011;49810;48.160;10.812;2023-03-23T02:09:25;10.65;;;6.70;;
47749;SDS011;49810;48.160;10.812;2023-03-23T02:11:52;10.82;;;6.70;;
47749;SDS011;49810;48.160;10.812;2023-03-23T02:14:19;12.13;;;6.38;;
47749;SDS011;49810;48.160;10.812;2023-03-23T02:16:47;9.90;;;6.68;;
47749;SDS011;49810;48.160;10.812;2023-03-23T02:19:25;8.93;;;6.25;;
47749;SDS011;49810;48.160;10.812;2023-03-23T02:22:06;11.07;;;6.75;;
47749;SDS011;49810;48.160;10.812;2023-03-23T02:27:40;12.50;;;6.50;;
47749;SDS011;49810;48.160;10.812;2023-03-23T02:30:15;10.63;;;5.90;;
47749;SDS011;49810;48.160;10.812;2023-03-23T02:32:51;9.75;;;6.25;;
47749;SDS011;49810;48.160;10.812;2023-03-23T02:35:24;9.90;;;6.18;;
47749;SDS011;49810;48.160;10.812;2023-03-23T02:37:55;8.93;;;5.63;;
47749;SDS011;49810;48.160;10.812;2023-03-23T02:40:24;12.50;;;6.05;;
47749;SDS011;49810;48.160;10.812;2023-03-23T02:42:53;10.68;;;6.30;;
47749;SDS011;49810;48.160;10.812;2023-03-23T02:45:20;9.60;;;6.07;;
47749;SDS011;49810;48.160;10.812;2023-03-23T02:47:49;12.57;;;6.82;;
47749;SDS011;49810;48.160;10.812;2023-03-23T02:50:18;9.25;;;6.20;;
47749;SDS011;49810;48.160;10.812;2023-03-23T02:52:47;9.70;;;6.32;;
47749;SDS011;49810;48.160;10.812;2023-03-23T02:55:15;10.35;;;6.55;;
47749;SDS011;49810;48.160;10.812;2023-03-23T02:57:43;9.05;;;5.55;;
47749;SDS011;49810;48.160;10.812;2023-03-23T03:00:14;9.52;;;5.65;;
47749;SDS011;49810;48.160;10.812;2023-03-23T03:02:42;9.70;;;5.72;;
47749;SDS011;49810;48.160;10.812;2023-03-23T03:05:10;9.50;;;5.82;;
47749;SDS011;49810;48.160;10.812;2023-03-23T03:07:44;9.32;;;5.90;;
47749;SDS011;49810;48.160;10.812;2023-03-23T03:10:18;10.98;;;6.07;;
47749;SDS011;49810;48.160;10.812;2023-03-23T03:12:51;10.70;;;6.65;;
47749;SDS011;49810;48.160;10.812;2023-03-23T03:15:22;8.50;;;5.68;;
47749;SDS011;49810;48.160;10.812;2023-03-23T03:17:51;8.75;;;6.20;;
47749;SDS011;49810;48.160;10.812;2023-03-23T03:20:22;9.98;;;6.03;;
47749;SDS011;49810;48.160;10.812;2023-03-23T03:22:52;10.90;;;6.38;;
47749;SDS011;49810;48.160;10.812;2023-03-23T03:25:21;8.68;;;5.88;;
47749;SDS011;49810;48.160;10.812;2023-03-23T03:27:51;9.43;;;6.43;;
47749;SDS011;49810;48.160;10.812;2023-03-23T03:30:28;9.00;;;5.70;;
47749;SDS011;49810;48.160;10.812;2023-03-23T03:32:57;9.65;;;5.80;;
47749;SDS011;49810;48.160;10.812;2023-03-23T03:35:26;10.00;;;6.22;;
47749;SDS011;49810;48.160;10.812;2023-03-23T03:37:53;10.50;;;5.68;;
47749;SDS011;49810;48.160;10.812;2023-03-23T03:40:22;11.40;;;6.22;;
47749;SDS011;49810;48.160;10.812;2023-03-23T03:42:49;9.05;;;5.55;;
47749;SDS011;49810;48.160;10.812;2023-03-23T03:45:16;8.07;;;5.38;;
47749;SDS011;49810;48.160;10.812;2023-03-23T03:47:44;9.82;;;5.75;;
47749;SDS011;49810;48.160;10.812;2023-03-23T03:50:12;8.65;;;5.70;;
47749;SDS011;49810;48.160;10.812;2023-03-23T03:52:39;8.63;;;5.75;;
47749;SDS011;49810;48.160;10.812;2023-03-23T03:55:07;10.48;;;6.57;;
47749;SDS011;49810;48.160;10.812;2023-03-23T03:57:38;11.02;;;6.00;;
47749;SDS011;49810;48.160;10.812;2023-03-23T04:00:13;9.77;;;6.53;;
47749;SDS011;49810;48.160;10.812;2023-03-23T04:02:41;10.63;;;6.45;;
47749;SDS011;49810;48.160;10.812;2023-03-23T04:05:08;11.25;;;6.50;;
47749;SDS011;49810;48.160;10.812;2023-03-23T04:07:36;9.57;;;6.60;;
47749;SDS011;49810;48.160;10.812;2023-03-23T04:10:05;10.38;;;6.00;;
47749;SDS011;49810;48.160;10.812;2023-03-23T04:12:33;9.60;;;6.15;;
47749;SDS011;49810;48.160;10.812;2023-03-23T04:15:16;9.93;;;5.75;;
47749;SDS011;49810;48.160;10.812;2023-03-23T04:17:44;10.10;;;5.85;;
47749;SDS011;49810;48.160;10.812;2023-03-23T04:20:11;10.07;;;5.57;;
47749;SDS011;49810;48.160;10.812;2023-03-23T04:22:46;7.72;;;5.35;;
47749;SDS011;49810;48.160;10.812;2023-03-23T04:25:15;8.77;;;5.15;;
47749;SDS011;49810;48.160;10.812;2023-03-23T04:27:42;8.95;;;5.80;;
47749;SDS011;49810;48.160;10.812;2023-03-23T04:30:13;8.23;;;5.72;;
47749;SDS011;49810;48.160;10.812;2023-03-23T04:32:45;9.25;;;5.63;;
47749;SDS011;49810;48.160;10.812;2023-03-23T04:35:19;9.35;;;6.13;;
47749;SDS011;49810;48.160;10.812;2023-03-23T04:37:52;8.95;;;5.50;;
47749;SDS011;49810;48.160;10.812;2023-03-23T04:40:20;10.30;;;6.07;;
47749;SDS011;49810;48.160;10.812;2023-03-23T04:42:58;9.65;;;6.30;;
47749;SDS011;49810;48.160;10.812;2023-03-23T04:45:40;10.93;;;5.93;;
47749;SDS011;49810;48.160;10.812;2023-03-23T04:48:12;10.35;;;6.20;;
47749;SDS011;49810;48.160;10.812;2023-03-23T04:50:50;9.15;;;5.50;;
47749;SDS011;49810;48.160;10.812;2023-03-23T04:53:23;10.38;;;5.82;;
47749;SDS011;49810;48.160;10.812;2023-03-23T04:55:51;9.25;;;5.60;;
47749;SDS011;49810;48.160;10.812;2023-03-23T04:58:18;8.10;;;5.00;;
47749;SDS011;49810;48.160;10.812;2023-03-23T05:01:09;9.10;;;5.47;;
47749;SDS011;49810;48.160;10.812;2023-03-23T05:03:49;7.93;;;5.25;;
47749;SDS011;49810;48.160;10.812;2023-03-23T05:06:16;8.30;;;5.20;;
47749;SDS011;49810;48.160;10.812;2023-03-23T05:08:43;8.40;;;5.63;;
47749;SDS011;49810;48.160;10.812;2023-03-23T05:11:10;9.70;;;5.32;;
47749;SDS011;49810;48.160;10.812;2023-03-23T05:13:40;8.02;;;5.53;;
47749;SDS011;49810;48.160;10.812;2023-03-23T05:16:10;8.48;;;5.53;;
47749;SDS011;49810;48.160;10.812;2023-03-23T05:18:39;14.40;;;6.07;;
47749;SDS011;49810;48.160;10.812;2023-03-23T05:21:11;9.60;;;5.50;;
47749;SDS011;49810;48.160;10.812;2023-03-23T05:23:43;12.82;;;5.72;;
47749;SDS011;49810;48.160;10.812;2023-03-23T05:26:16;10.50;;;5.82;;
47749;SDS011;49810;48.160;10.812;2023-03-23T05:28:43;8.40;;;5.38;;
47749;SDS011;49810;48.160;10.812;2023-03-23T05:31:23;10.18;;;6.32;;
47749;SDS011;49810;48.160;10.812;2023-03-23T05:33:50;10.07;;;5.28;;
47749;SDS011;49810;48.160;10.812;2023-03-23T05:36:48;12.50;;;6.75;;
47749;SDS011;49810;48.160;10.812;2023-03-23T05:39:54;7.55;;;5.07;;
47749;SDS011;49810;48.160;10.812;2023-03-23T05:42:35;12.20;;;5.82;;
47749;SDS011;49810;48.160;10.812;2023-03-23T05:45:11;8.40;;;5.03;;
47749;SDS011;49810;48.160;10.812;2023-03-23T05:47:40;10.57;;;6.13;;
47749;SDS011;49810;48.160;10.812;2023-03-23T05:50:12;13.27;;;5.47;;
47749;SDS011;49810;48.160;10.812;2023-03-23T05:52:41;8.55;;;5.10;;
47749;SDS011;49810;48.160;10.812;2023-03-23T05:55:10;9.35;;;5.40;;
47749;SDS011;49810;48.160;10.812;2023-03-23T05:57:40;11.52;;;7.63;;
47749;SDS011;49810;48.160;10.812;2023-03-23T06:00:23;8.15;;;5.10;;
47749;SDS011;49810;48.160;10.812;2023-03-23T06:02:58;10.40;;;5.28;;
47749;SDS011;49810;48.160;10.812;2023-03-23T06:05:43;9.85;;;5.60;;
47749;SDS011;49810;48.160;10.812;2023-03-23T06:08:14;12.63;;;5.55;;
47749;SDS011;49810;48.160;10.812;2023-03-23T06:10:41;11.82;;;5.47;;
47749;SDS011;49810;48.160;10.812;2023-03-23T06:13:08;8.35;;;5.20;;
47749;SDS011;49810;48.160;10.812;2023-03-23T06:15:41;10.32;;;5.65;;
47749;SDS011;49810;48.160;10.812;2023-03-23T06:18:11;9.55;;;4.88;;
47749;SDS011;49810;48.160;10.812;2023-03-23T06:20:45;9.43;;;5.53;;
47749;SDS011;49810;48.160;10.812;2023-03-23T06:23:29;9.00;;;5.07;;
47749;SDS011;49810;48.160;10.812;2023-03-23T06:25:57;11.32;;;5.22;;
47749;SDS011;49810;48.160;10.812;2023-03-23T06:28:25;9.95;;;5.40;;
47749;SDS011;49810;48.160;10.812;2023-03-23T06:30:53;12.00;;;4.78;;
47749;SDS011;49810;48.160;10.812;2023-03-23T06:33:20;7.82;;;4.65;;
47749;SDS011;49810;48.160;10.812;2023-03-23T06:36:16;12.50;;;5.20;;
47749;SDS011;49810;48.160;10.812;2023-03-23T06:39:02;9.93;;;5.30;;
47749;SDS011;49810;48.160;10.812;2023-03-23T06:41:46;9.48;;;4.90;;
47749;SDS011;49810;48.160;10.812;2023-03-23T06:44:14;6.88;;;4.78;;
47749;SDS011;49810;48.160;10.812;2023-03-23T06:46:41;8.48;;;4.70;;
47749;SDS011;49810;48.160;10.812;2023-03-23T06:49:16;7.60;;;4.88;;
47749;SDS011;49810;48.160;10.812;2023-03-23T06:51:50;8.77;;;5.20;;
47749;SDS011;49810;48.160;10.812;2023-03-23T06:54:18;9.43;;;4.82;;
47749;SDS011;49810;48.160;10.812;2023-03-23T06:56:45;8.07;;;5.10;;
47749;SDS011;49810;48.160;10.812;2023-03-23T06:59:13;7.15;;;4.72;;
47749;SDS011;49810;48.160;10.812;2023-03-23T07:01:40;8.07;;;4.80;;
47749;SDS011;49810;48.160;10.812;2023-03-23T07:04:07;9.30;;;4.68;;
47749;SDS011;49810;48.160;10.812;2023-03-23T07:07:07;8.27;;;4.18;;
47749;SDS011;49810;48.160;10.812;2023-03-23T07:09:42;7.95;;;4.80;;
47749;SDS011;49810;48.160;10.812;2023-03-23T07:12:10;8.88;;;4.10;;
47749;SDS011;49810;48.160;10.812;2023-03-23T07:14:43;6.78;;;4.03;;
47749;SDS011;49810;48.160;10.812;2023-03-23T07:17:10;7.72;;;4.20;;
47749;SDS011;49810;48.160;10.812;2023-03-23T07:19:44;8.70;;;4.15;;
47749;SDS011;49810;48.160;10.812;2023-03-23T07:22:13;10.27;;;4.55;;
47749;SDS011;49810;48.160;10.812;2023-03-23T07:24:45;8.95;;;4.60;;
47749;SDS011;49810;48.160;10.812;2023-03-23T07:27:26;6.85;;;4.22;;
47749;SDS011;49810;48.160;10.812;2023-03-23T07:29:56;8.23;;;3.78;;
47749;SDS011;49810;48.160;10.812;2023-03-23T07:32:25;6.85;;;3.72;;
47749;SDS011;49810;48.160;10.812;2023-03-23T07:34:53;7.82;;;4.20;;
47749;SDS011;49810;48.160;10.812;2023-03-23T07:37:28;8.80;;;4.25;;
47749;SDS011;49810;48.160;10.812;2023-03-23T07:39:59;7.00;;;3.80;;
47749;SDS011;49810;48.160;10.812;2023-03-23T07:42:33;12.80;;;3.90;;
47749;SDS011;49810;48.160;10.812;2023-03-23T07:45:00;6.45;;;3.70;;
47749;SDS011;49810;48.160;10.812;2023-03-23T07:47:27;6.68;;;4.18;;
47749;SDS011;49810;48.160;10.812;2023-03-23T07:49:54;6.93;;;3.53;;
47749;SDS011;49810;48.160;10.812;2023-03-23T07:52:35;6.80;;;3.65;;
47749;SDS011;49810;48.160;10.812;2023-03-23T07:55:06;6.93;;;3.30;;
47749;SDS011;49810;48.160;10.812;2023-03-23T07:57:54;5.75;;;3.28;;
47749;SDS011;49810;48.160;10.812;2023-03-23T08:00:21;6.20;;;3.72;;
47749;SDS011;49810;48.160;10.812;2023-03-23T08:02:52;8.85;;;3.78;;
47749;SDS011;49810;48.160;10.812;2023-03-23T08:05:32;5.68;;;3.78;;
47749;SDS011;49810;48.160;10.812;2023-03-23T08:08:22;6.53;;;4.15;;
47749;SDS011;49810;48.160;10.812;2023-03-23T08:11:14;5.97;;;3.55;;
47749;SDS011;49810;48.160;10.812;2023-03-23T08:14:10;5.30;;;3.40;;
47749;SDS011;49810;48.160;10.812;2023-03-23T08:16:55;8.45;;;3.85;;
47749;SDS011;49810;48.160;10.812;2023-03-23T08:19:45;8.50;;;3.97;;
47749;SDS011;49810;48.160;10.812;2023-03-23T08:22:31;5.55;;;3.38;;
47749;SDS011;49810;48.160;10.812;2023-03-23T08:25:14;7.05;;;3.85;;
47749;SDS011;49810;48.160;10.812;2023-03-23T08:28:03;5.85;;;3.10;;
47749;SDS011;49810;48.160;10.812;2023-03-23T08:30:40;6.65;;;3.58;;
47749;SDS011;49810;48.160;10.812;2023-03-23T08:33:20;7.47;;;4.05;;
47749;SDS011;49810;48.160;10.812;2023-03-23T08:35:57;8.55;;;3.85;;
47749;SDS011;49810;48.160;10.812;2023-03-23T08:38:44;6.32;;;3.97;;
47749;SDS011;49810;48.160;10.812;2023-03-23T08:41:19;6.97;;;3.65;;
47749;SDS011;49810;48.160;10.812;2023-03-23T08:44:01;4.88;;;3.00;;
47749;SDS011;49810;48.160;10.812;2023-03-23T08:46:47;4.80;;;3.13;;
47749;SDS011;49810;48.160;10.812;2023-03-23T08:49:25;5.68;;;2.90;;
47749;SDS011;49810;48.160;10.812;2023-03-23T08:51:52;8.65;;;3.25;;
47749;SDS011;49810;48.160;10.812;2023-03-23T08:54:48;6.32;;;2.80;;
47749;SDS011;49810;48.160;10.812;2023-03-23T08:57:29;7.13;;;3.13;;
47749;SDS011;49810;48.160;10.812;2023-03-23T09:00:12;6.13;;;3.28;;
47749;SDS011;49810;48.160;10.812;2023-03-23T09:02:55;5.72;;;3.00;;
47749;SDS011;49810;48.160;10.812;2023-03-23T09:05:32;6.10;;;2.97;;
47749;SDS011;49810;48.160;10.812;2023-03-23T09:08:02;5.45;;;2.92;;
47749;SDS011;49810;48.160;10.812;2023-03-23T09:10:29;4.93;;;2.65;;
47749;SDS011;49810;48.160;10.812;2023-03-23T09:12:56;4.40;;;2.38;;
47749;SDS011;49810;48.160;10.812;2023-03-23T09:15:24;6.07;;;2.55;;
47749;SDS011;49810;48.160;10.812;2023-03-23T09:17:52;5.63;;;2.80;;
47749;SDS011;49810;48.160;10.812;2023-03-23T09:20:20;3.05;;;1.92;;
47749;SDS011;49810;48.160;10.812;2023-03-23T09:22:48;4.63;;;2.40;;
47749;SDS011;49810;48.160;10.812;2023-03-23T09:25:16;5.38;;;2.20;;
47749;SDS011;49810;48.160;10.812;2023-03-23T09:27:44;4.70;;;2.17;;
47749;SDS011;49810;48.160;10.812;2023-03-23T09:30:14;3.65;;;2.10;;
47749;SDS011;49810;48.160;10.812;2023-03-23T09:32:42;5.57;;;2.35;;
47749;SDS011;49810;48.160;10.812;2023-03-23T09:35:09;6.05;;;2.38;;
47749;SDS011;49810;48.160;10.812;2023-03-23T09:37:38;4.60;;;2.22;;
47749;SDS011;49810;48.160;10.812;2023-03-23T09:40:06;4.43;;;1.83;;
47749;SDS011;49810;48.160;10.812;2023-03-23T09:42:37;3.47;;;1.98;;
47749;SDS011;49810;48.160;10.812;2023-03-23T09:45:10;6.82;;;2.47;;
47749;SDS011;49810;48.160;10.812;2023-03-23T09:47:42;4.80;;;2.58;;
47749;SDS011;49810;48.160;10.812;2023-03-23T09:50:14;5.20;;;2.20;;
47749;SDS011;49810;48.160;10.812;2023-03-23T09:52:43;5.30;;;2.95;;
47749;SDS011;49810;48.160;10.812;2023-03-23T09:55:11;6.15;;;3.00;;
47749;SDS011;49810;48.160;10.812;2023-03-23T09:57:41;5.65;;;2.72;;
47749;SDS011;49810;48.160;10.812;2023-03-23T10:00:10;6.90;;;2.97;;
47749;SDS011;49810;48.160;10.812;2023-03-23T10:02:41;4.22;;;2.35;;
47749;SDS011;49810;48.160;10.812;2023-03-23T10:05:20;4.43;;;2.40;;
47749;SDS011;49810;48.160;10.812;2023-03-23T10:07:49;6.60;;;2.42;;
47749;SDS011;49810;48.160;10.812;2023-03-23T10:10:16;8.93;;;2.67;;
47749;SDS011;49810;48.160;10.812;2023-03-23T10:12:45;4.13;;;2.28;;
47749;SDS011;49810;48.160;10.812;2023-03-23T10:15:14;4.43;;;2.50;;
47749;SDS011;49810;48.160;10.812;2023-03-23T10:17:45;4.38;;;2.20;;
47749;SDS011;49810;48.160;10.812;2023-03-23T10:20:17;5.57;;;2.80;;
47749;SDS011;49810;48.160;10.812;2023-03-23T10:22:47;4.95;;;3.00;;
47749;SDS011;49810;48.160;10.812;2023-03-23T10:25:18;5.05;;;2.70;;
47749;SDS011;49810;48.160;10.812;2023-03-23T10:27:49;4.38;;;2.63;;
47749;SDS011;49810;48.160;10.812;2023-03-23T10:30:19;4.45;;;2.60;;
47749;SDS011;49810;48.160;10.812;2023-03-23T10:32:50;4.82;;;2.60;;
47749;SDS011;49810;48.160;10.812;2023-03-23T10:35:19;5.28;;;2.30;;
47749;SDS011;49810;48.160;10.812;2023-03-23T10:37:52;5.60;;;2.65;;
47749;SDS011;49810;48.160;10.812;2023-03-23T10:40:23;6.50;;;2.78;;
47749;SDS011;49810;48.160;10.812;2023-03-23T10:42:54;6.00;;;2.80;;
47749;SDS011;49810;48.160;10.812;2023-03-23T10:45:23;5.88;;;2.70;;
47749;SDS011;49810;48.160;10.812;2023-03-23T10:47:52;6.47;;;2.40;;
47749;SDS011;49810;48.160;10.812;2023-03-23T10:50:22;4.88;;;2.63;;
47749;SDS011;49810;48.160;10.812;2023-03-23T10:52:51;7.38;;;2.40;;
47749;SDS011;49810;48.160;10.812;2023-03-23T10:55:19;8.63;;;2.63;;
47749;SDS011;49810;48.160;10.812;2023-03-23T10:57:59;4.93;;;2.45;;
47749;SDS011;49810;48.160;10.812;2023-03-23T11:00:26;4.57;;;2.50;;
47749;SDS011;49810;48.160;10.812;2023-03-23T11:02:57;4.95;;;2.45;;
47749;SDS011;49810;48.160;10.812;2023-03-23T11:05:25;4.45;;;2.30;;
47749;SDS011;49810;48.160;10.812;2023-03-23T11:07:55;5.25;;;2.70;;
47749;SDS011;49810;48.160;10.812;2023-03-23T11:10:24;5.28;;;2.13;;
47749;SDS011;49810;48.160;10.812;2023-03-23T11:12:51;3.53;;;2.05;;
47749;SDS011;49810;48.160;10.812;2023-03-23T11:15:24;4.03;;;2.30;;
47749;SDS011;49810;48.160;10.812;2023-03-23T11:17:55;4.70;;;2.75;;
47749;SDS011;49810;48.160;10.812;2023-03-23T11:20:22;4.18;;;2.58;;
47749;SDS011;49810;48.160;10.812;2023-03-23T11:22:49;5.43;;;2.50;;
47749;SDS011;49810;48.160;10.812;2023-03-23T11:25:17;4.63;;;2.30;;
47749;SDS011;49810;48.160;10.812;2023-03-23T11:27:45;4.57;;;1.95;;
47749;SDS011;49810;48.160;10.812;2023-03-23T11:30:18;3.33;;;1.60;;
47749;SDS011;49810;48.160;10.812;2023-03-23T11:35:16;6.00;;;1.80;;
47749;SDS011;49810;48.160;10.812;2023-03-23T11:37:43;6.05;;;2.00;;
47749;SDS011;49810;48.160;10.812;2023-03-23T11:40:15;4.25;;;1.85;;
47749;SDS011;49810;48.160;10.812;2023-03-23T11:42:45;7.53;;;1.88;;
47749;SDS011;49810;48.160;10.812;2023-03-23T11:45:15;4.20;;;2.08;;
47749;SDS011;49810;48.160;10.812;2023-03-23T11:47:45;2.92;;;1.63;;
47749;SDS011;49810;48.160;10.812;2023-03-23T11:50:12;4.75;;;1.83;;
47749;SDS011;49810;48.160;10.812;2023-03-23T11:52:41;3.35;;;1.80;;
47749;SDS011;49810;48.160;10.812;2023-03-23T11:55:11;6.68;;;1.52;;
47749;SDS011;49810;48.160;10.812;2023-03-23T11:57:40;5.55;;;1.77;;
47749;SDS011;49810;48.160;10.812;2023-03-23T12:00:18;3.35;;;1.70;;
47749;SDS011;49810;48.160;10.812;2023-03-23T12:02:47;4.20;;;1.80;;
47749;SDS011;49810;48.160;10.812;2023-03-23T12:05:39;3.42;;;1.67;;
47749;SDS011;49810;48.160;10.812;2023-03-23T12:08:22;3.60;;;1.85;;
47749;SDS011;49810;48.160;10.812;2023-03-23T12:10:52;4.00;;;1.65;;
47749;SDS011;49810;48.160;10.812;2023-03-23T12:13:26;2.58;;;1.40;;
47749;SDS011;49810;48.160;10.812;2023-03-23T12:15:58;2.92;;;1.50;;
47749;SDS011;49810;48.160;10.812;2023-03-23T12:18:30;3.70;;;1.60;;
47749;SDS011;49810;48.160;10.812;2023-03-23T12:21:00;3.20;;;1.30;;
47749;SDS011;49810;48.160;10.812;2023-03-23T12:23:33;4.03;;;1.90;;
47749;SDS011;49810;48.160;10.812;2023-03-23T12:26:12;3.78;;;1.60;;
47749;SDS011;49810;48.160;10.812;2023-03-23T12:31:28;2.53;;;1.35;;
47749;SDS011;49810;48.160;10.812;2023-03-23T12:34:01;3.38;;;1.45;;
47749;SDS011;49810;48.160;10.812;2023-03-23T12:36:33;3.25;;;1.70;;
47749;SDS011;49810;48.160;10.812;2023-03-23T12:39:10;5.40;;;1.75;;
47749;SDS011;49810;48.160;10.812;2023-03-23T12:41:39;3.80;;;1.92;;
47749;SDS011;49810;48.160;10.812;2023-03-23T12:44:07;3.88;;;2.00;;
47749;SDS011;49810;48.160;10.812;2023-03-23T12:46:44;3.65;;;1.90;;
47749;SDS011;49810;48.160;10.812;2023-03-23T12:49:17;3.70;;;1.60;;
47749;SDS011;49810;48.160;10.812;2023-03-23T12:51:54;4.32;;;1.77;;
47749;SDS011;49810;48.160;10.812;2023-03-23T12:54:24;3.08;;;1.65;;
47749;SDS011;49810;48.160;10.812;2023-03-23T12:56:56;6.15;;;1.90;;
47749;SDS011;49810;48.160;10.812;2023-03-23T12:59:28;3.28;;;1.77;;
47749;SDS011;49810;48.160;10.812;2023-03-23T13:02:01;5.05;;;2.00;;
47749;SDS011;49810;48.160;10.812;2023-03-23T13:04:30;4.53;;;1.77;;
47749;SDS011;49810;48.160;10.812;2023-03-23T13:07:00;5.28;;;2.05;;
47749;SDS011;49810;48.160;10.812;2023-03-23T13:09:31;4.07;;;1.92;;
47749;SDS011;49810;48.160;10.812;2023-03-23T13:11:59;4.05;;;1.65;;
47749;SDS011;49810;48.160;10.812;2023-03-23T13:14:32;4.68;;;1.80;;
47749;SDS011;49810;48.160;10.812;2023-03-23T13:17:05;4.05;;;1.70;;
47749;SDS011;49810;48.160;10.812;2023-03-23T13:19:51;3.45;;;1.90;;
47749;SDS011;49810;48.160;10.812;2023-03-23T13:22:21;5.35;;;2.00;;
47749;SDS011;49810;48.160;10.812;2023-03-23T13:24:50;6.20;;;2.00;;
47749;SDS011;49810;48.160;10.812;2023-03-23T13:27:22;4.25;;;1.88;;
47749;SDS011;49810;48.160;10.812;2023-03-23T13:29:51;4.30;;;2.15;;
47749;SDS011;49810;48.160;10.812;2023-03-23T13:32:20;3.85;;;2.25;;
47749;SDS011;49810;48.160;10.812;2023-03-23T13:34:50;6.00;;;1.80;;
47749;SDS011;49810;48.160;10.812;2023-03-23T13:37:20;4.13;;;1.65;;
47749;SDS011;49810;48.160;10.812;2023-03-23T13:39:49;4.82;;;2.05;;
47749;SDS011;49810;48.160;10.812;2023-03-23T13:42:22;3.70;;;1.92;;
47749;SDS011;49810;48.160;10.812;2023-03-23T13:45:07;5.07;;;2.20;;
47749;SDS011;49810;48.160;10.812;2023-03-23T13:50:04;4.65;;;2.00;;
47749;SDS011;49810;48.160;10.812;2023-03-23T13:52:36;5.00;;;2.40;;
47749;SDS011;49810;48.160;10.812;2023-03-23T13:55:27;6.75;;;2.00;;
47749;SDS011;49810;48.160;10.812;2023-03-23T13:57:56;7.43;;;2.10;;
47749;SDS011;49810;48.160;10.812;2023-03-23T14:03:11;4.22;;;2.10;;
47749;SDS011;49810;48.160;10.812;2023-03-23T14:05:40;4.10;;;2.00;;
47749;SDS011;49810;48.160;10.812;2023-03-23T14:08:12;6.30;;;2.50;;
47749;SDS011;49810;48.160;10.812;2023-03-23T14:10:41;6.90;;;2.40;;
47749;SDS011;49810;48.160;10.812;2023-03-23T14:13:11;3.78;;;2.50;;
47749;SDS011;49810;48.160;10.812;2023-03-23T14:15:42;4.53;;;2.08;;
47749;SDS011;49810;48.160;10.812;2023-03-23T14:18:13;5.13;;;2.50;;
47749;SDS011;49810;48.160;10.812;2023-03-23T14:20:42;4.95;;;2.38;;
47749;SDS011;49810;48.160;10.812;2023-03-23T14:23:14;3.50;;;2.03;;
47749;SDS011;49810;48.160;10.812;2023-03-23T14:25:41;6.50;;;2.28;;
47749;SDS011;49810;48.160;10.812;2023-03-23T14:28:15;4.45;;;2.47;;
47749;SDS011;49810;48.160;10.812;2023-03-23T14:33:10;3.97;;;1.70;;
47749;SDS011;49810;48.160;10.812;2023-03-23T14:35:40;3.78;;;2.05;;
47749;SDS011;49810;48.160;10.812;2023-03-23T14:38:11;5.28;;;2.10;;
47749;SDS011;49810;48.160;10.812;2023-03-23T14:40:40;4.07;;;1.95;;
47749;SDS011;49810;48.160;10.812;2023-03-23T14:43:08;5.25;;;2.22;;
47749;SDS011;49810;48.160;10.812;2023-03-23T14:45:37;5.38;;;2.72;;
47749;SDS011;49810;48.160;10.812;2023-03-23T14:48:05;4.28;;;2.10;;
47749;SDS011;49810;48.160;10.812;2023-03-23T14:50:36;4.03;;;2.33;;
47749;SDS011;49810;48.160;10.812;2023-03-23T14:53:09;7.32;;;4.15;;
47749;SDS011;49810;48.160;10.812;2023-03-23T14:55:41;5.22;;;2.20;;
47749;SDS011;49810;48.160;10.812;2023-03-23T14:58:08;7.95;;;3.50;;
47749;SDS011;49810;48.160;10.812;2023-03-23T15:00:37;8.93;;;3.85;;
47749;SDS011;49810;48.160;10.812;2023-03-23T15:03:05;5.05;;;2.05;;
47749;SDS011;49810;48.160;10.812;2023-03-23T15:05:33;3.85;;;2.10;;
47749;SDS011;49810;48.160;10.812;2023-03-23T15:08:02;8.98;;;4.88;;
47749;SDS011;49810;48.160;10.812;2023-03-23T15:10:30;6.35;;;3.10;;
47749;SDS011;49810;48.160;10.812;2023-03-23T15:12:58;6.25;;;3.33;;
47749;SDS011;49810;48.160;10.812;2023-03-23T15:15:26;4.95;;;2.90;;